createdAt,value
2023-06-11T00:00:52.983Z,1002.2
2023-06-11T00:01:54.145Z,1002.2
2023-06-11T00:02:55.738Z,1002.1
2023-06-11T00:03:57.287Z,1002.1
2023-06-11T00:04:58.885Z,1002.1
2023-06-11T00:06:00.179Z,1002.1
2023-06-11T00:07:01.349Z,1002.1
2023-06-11T00:08:02.675Z,1002.1
2023-06-11T00:09:03.839Z,1002.1
2023-06-11T00:10:05.009Z,1002.2
2023-06-11T00:11:06.222Z,1002.2
2023-06-11T00:12:07.386Z,1002.2
2023-06-11T00:13:08.565Z,1002.2
2023-06-11T00:14:09.721Z,1002.2
2023-06-11T00:15:11.401Z,1002.2
2023-06-11T00:16:12.951Z,1002.2
2023-06-11T00:17:14.142Z,1002.2
2023-06-11T00:18:15.328Z,1002.2
2023-06-11T00:19:16.475Z,1002.2
2023-06-11T00:20:17.682Z,1002.2
2023-06-11T00:21:18.852Z,1002.2
2023-06-11T00:22:20.015Z,1002.2
2023-06-11T00:23:21.187Z,1002.2
2023-06-11T00:24:22.428Z,1002.2
2023-06-11T00:25:23.669Z,1002.2
2023-06-11T00:26:24.812Z,1002.3
2023-06-11T00:27:25.976Z,1002.3
2023-06-11T00:28:27.148Z,1002.3
2023-06-11T00:29:28.313Z,1002.3
2023-06-11T00:30:29.478Z,1002.3
2023-06-11T00:31:30.671Z,1002.3
2023-06-11T00:32:31.841Z,1002.3
2023-06-11T00:33:33.242Z,1002.3
2023-06-11T00:34:34.400Z,1002.3
2023-06-11T00:35:35.546Z,1002.3
2023-06-11T00:36:36.714Z,1002.2
2023-06-11T00:37:37.915Z,1002.3
2023-06-11T00:38:39.108Z,1002.2
2023-06-11T00:39:40.272Z,1002.3
2023-06-11T00:40:41.439Z,1002.2
2023-06-11T00:41:42.620Z,1002.3
2023-06-11T00:42:43.784Z,1002.3
2023-06-11T00:43:44.953Z,1002.3
2023-06-11T00:44:46.119Z,1002.3
2023-06-11T00:45:47.309Z,1002.3
2023-06-11T00:46:48.483Z,1002.3
2023-06-11T00:47:49.810Z,1002.3
2023-06-11T00:48:51.094Z,1002.3
2023-06-11T00:49:52.238Z,1002.3
2023-06-11T00:50:53.510Z,1002.3
2023-06-11T00:51:54.678Z,1002.3
2023-06-11T00:52:55.847Z,1002.3
2023-06-11T00:53:57.010Z,1002.3
2023-06-11T00:55:00.262Z,1002.3
2023-06-11T00:56:01.412Z,1002.4
2023-06-11T00:57:02.576Z,1002.4
2023-06-11T00:58:03.749Z,1002.4
2023-06-11T00:59:04.946Z,1002.4
2023-06-11T01:00:06.117Z,1002.4
2023-06-11T01:01:07.390Z,1002.4
2023-06-11T01:02:08.607Z,1002.4
2023-06-11T01:03:09.804Z,1002.4
2023-06-11T01:04:11.209Z,1002.4
2023-06-11T01:05:13.234Z,1002.4
2023-06-11T01:06:15.137Z,1002.4
2023-06-11T01:07:16.304Z,1002.4
2023-06-11T01:08:17.477Z,1002.4
2023-06-11T01:09:18.642Z,1002.4
2023-06-11T01:10:19.808Z,1002.4
2023-06-11T01:11:20.973Z,1002.4
2023-06-11T01:12:22.153Z,1002.4
2023-06-11T01:13:23.306Z,1002.4
2023-06-11T01:14:24.469Z,1002.4
2023-06-11T01:15:25.643Z,1002.4
2023-06-11T01:16:26.805Z,1002.5
2023-06-11T01:17:27.983Z,1002.5
2023-06-11T01:18:29.138Z,1002.5
2023-06-11T01:19:30.378Z,1002.5
2023-06-11T01:20:31.515Z,1002.5
2023-06-11T01:21:32.683Z,1002.5
2023-06-11T01:22:33.850Z,1002.5
2023-06-11T01:23:35.354Z,1002.5
2023-06-11T01:24:36.570Z,1002.5
2023-06-11T01:25:37.730Z,1002.6
2023-06-11T01:26:41.844Z,1002.6
2023-06-11T01:27:43.016Z,1002.6
2023-06-11T01:28:44.180Z,1002.6
2023-06-11T01:29:45.346Z,1002.6
2023-06-11T01:30:46.551Z,1002.6
2023-06-11T01:31:47.823Z,1002.6
2023-06-11T01:32:49.228Z,1002.6
2023-06-11T01:33:50.448Z,1002.6
2023-06-11T01:34:51.654Z,1002.6
2023-06-11T01:35:52.809Z,1002.6
2023-06-11T01:36:54.018Z,1002.7
2023-06-11T01:37:55.180Z,1002.7
2023-06-11T01:38:56.347Z,1002.7
2023-06-11T01:39:57.520Z,1002.7
2023-06-11T01:40:58.745Z,1002.7
2023-06-11T01:41:59.906Z,1002.7
2023-06-11T01:43:01.076Z,1002.7
2023-06-11T01:44:02.239Z,1002.7
2023-06-11T01:45:03.407Z,1002.7
2023-06-11T01:46:04.634Z,1002.7
2023-06-11T01:47:05.824Z,1002.7
2023-06-11T01:48:07.225Z,1002.7
2023-06-11T01:49:08.488Z,1002.7
2023-06-11T01:50:09.684Z,1002.7
2023-06-11T01:51:10.818Z,1002.7
2023-06-11T01:52:11.996Z,1002.7
2023-06-11T01:53:13.157Z,1002.7
2023-06-11T01:54:14.322Z,1002.7
2023-06-11T01:55:15.509Z,1002.7
2023-06-11T01:56:16.676Z,1002.7
2023-06-11T01:57:17.835Z,1002.7
2023-06-11T01:58:19.006Z,1002.7
2023-06-11T01:59:20.170Z,1002.7
2023-06-11T02:00:21.335Z,1002.7
2023-06-11T02:01:22.545Z,1002.7
2023-06-11T02:02:23.750Z,1002.7
2023-06-11T02:03:25.109Z,1002.7
2023-06-11T02:04:26.385Z,1002.7
2023-06-11T02:05:27.643Z,1002.7
2023-06-11T02:06:28.828Z,1002.7
2023-06-11T02:07:29.977Z,1002.7
2023-06-11T02:08:31.174Z,1002.7
2023-06-11T02:09:32.363Z,1002.7
2023-06-11T02:10:33.572Z,1002.7
2023-06-11T02:11:34.881Z,1002.7
2023-06-11T02:12:36.051Z,1002.7
2023-06-11T02:13:37.257Z,1002.7
2023-06-11T02:14:38.458Z,1002.7
2023-06-11T02:15:39.628Z,1002.7
2023-06-11T02:16:40.859Z,1002.7
2023-06-11T02:17:42.287Z,1002.7
2023-06-11T02:18:43.466Z,1002.7
2023-06-11T02:19:44.657Z,1002.7
2023-06-11T02:20:45.956Z,1002.8
2023-06-11T02:21:47.164Z,1002.8
2023-06-11T02:22:48.332Z,1002.8
2023-06-11T02:23:49.579Z,1002.8
2023-06-11T02:24:50.812Z,1002.8
2023-06-11T02:25:51.974Z,1002.8
2023-06-11T02:26:53.140Z,1002.8
2023-06-11T02:27:54.327Z,1002.8
2023-06-11T02:28:55.493Z,1002.8
2023-06-11T02:29:56.648Z,1002.8
2023-06-11T02:30:57.863Z,1002.8
2023-06-11T02:31:59.180Z,1002.8
2023-06-11T02:33:00.726Z,1002.8
2023-06-11T02:34:01.908Z,1002.9
2023-06-11T02:35:03.059Z,1002.9
2023-06-11T02:36:04.257Z,1002.9
2023-06-11T02:37:05.413Z,1002.9
2023-06-11T02:38:06.561Z,1002.9
2023-06-11T02:39:07.743Z,1002.9
2023-06-11T02:40:08.897Z,1002.8
2023-06-11T02:41:10.066Z,1002.8
2023-06-11T02:42:11.242Z,1002.9
2023-06-11T02:43:12.400Z,1002.9
2023-06-11T02:44:13.561Z,1002.9
2023-06-11T02:45:14.732Z,1002.9
2023-06-11T02:46:16.563Z,1002.9
2023-06-11T02:47:18.070Z,1002.9
2023-06-11T02:48:19.225Z,1002.9
2023-06-11T02:49:20.402Z,1002.9
2023-06-11T02:50:21.578Z,1002.9
2023-06-11T02:51:22.801Z,1002.9
2023-06-11T02:52:23.965Z,1002.9
2023-06-11T02:53:25.117Z,1002.9
2023-06-11T02:54:26.282Z,1003
2023-06-11T02:55:27.449Z,1003
2023-06-11T02:56:28.620Z,1003
2023-06-11T02:57:29.796Z,1003
2023-06-11T02:58:30.957Z,1003
2023-06-11T02:59:32.122Z,1003
2023-06-11T03:00:33.288Z,1002.9
2023-06-11T03:01:34.466Z,1003
2023-06-11T03:02:35.931Z,1002.9
2023-06-11T03:03:37.132Z,1002.9
2023-06-11T03:04:38.314Z,1003
2023-06-11T03:05:39.452Z,1003
2023-06-11T03:06:40.698Z,1003
2023-06-11T03:07:41.893Z,1003
2023-06-11T03:08:43.077Z,1003
2023-06-11T03:09:44.248Z,1003
2023-06-11T03:10:45.443Z,1003
2023-06-11T03:11:46.682Z,1003
2023-06-11T03:12:47.874Z,1003
2023-06-11T03:13:49.061Z,1003
2023-06-11T03:14:50.209Z,1003
2023-06-11T03:15:51.545Z,1003
2023-06-11T03:16:52.782Z,1003
2023-06-11T03:17:54.100Z,1003
2023-06-11T03:18:55.338Z,1003
2023-06-11T03:19:56.549Z,1003
2023-06-11T03:20:57.897Z,1003
2023-06-11T03:21:59.128Z,1003
2023-06-11T03:23:00.323Z,1003
2023-06-11T03:24:01.545Z,1003
2023-06-11T03:25:02.716Z,1003
2023-06-11T03:26:03.883Z,1003
2023-06-11T03:27:05.050Z,1003
2023-06-11T03:28:06.269Z,1003
2023-06-11T03:29:07.560Z,1003
2023-06-11T03:30:08.761Z,1003
2023-06-11T03:31:09.994Z,1003
2023-06-11T03:32:13.680Z,1003
2023-06-11T03:33:14.851Z,1003
2023-06-11T03:34:16.021Z,1003
2023-06-11T03:35:17.181Z,1003
2023-06-11T03:36:18.864Z,1003
2023-06-11T03:37:20.055Z,1003
2023-06-11T03:38:21.193Z,1003
2023-06-11T03:39:22.367Z,1003
2023-06-11T03:40:23.526Z,1003.1
2023-06-11T03:41:24.698Z,1003.1
2023-06-11T03:42:25.859Z,1003.1
2023-06-11T03:43:27.028Z,1003.1
2023-06-11T03:44:28.189Z,1003.1
2023-06-11T03:45:29.359Z,1003.1
2023-06-11T03:46:30.596Z,1003.1
2023-06-11T03:47:31.789Z,1003.1
2023-06-11T03:48:32.959Z,1003.1
2023-06-11T03:49:34.132Z,1003.1
2023-06-11T03:50:35.307Z,1003.1
2023-06-11T03:51:36.460Z,1003.1
2023-06-11T03:52:37.681Z,1003.1
2023-06-11T03:53:38.815Z,1003.1
2023-06-11T03:54:40.013Z,1003.1
2023-06-11T03:55:41.180Z,1003.1
2023-06-11T03:56:42.414Z,1003.1
2023-06-11T03:57:46.144Z,1003.1
2023-06-11T03:58:47.277Z,1003.1
2023-06-11T03:59:48.470Z,1003.1
2023-06-11T04:00:49.635Z,1003.1
2023-06-11T04:01:50.840Z,1003.2
2023-06-11T04:02:53.239Z,1003.2
2023-06-11T04:03:59.314Z,1003.2
2023-06-11T04:05:00.578Z,1003.2
2023-06-11T04:06:04.197Z,1003.1
2023-06-11T04:07:05.323Z,1003.2
2023-06-11T04:08:06.598Z,1003.2
2023-06-11T04:09:07.805Z,1003.2
2023-06-11T04:10:09.053Z,1003.2
2023-06-11T04:11:10.223Z,1003.2
2023-06-11T04:12:11.517Z,1003.2
2023-06-11T04:13:13.215Z,1003.3
2023-06-11T04:14:14.420Z,1003.3
2023-06-11T04:15:15.722Z,1003.3
2023-06-11T04:16:16.960Z,1003.3
2023-06-11T04:17:18.289Z,1003.3
2023-06-11T04:18:19.608Z,1003.3
2023-06-11T04:19:20.802Z,1003.3
2023-06-11T04:20:22.010Z,1003.3
2023-06-11T04:21:23.493Z,1003.3
2023-06-11T04:22:24.741Z,1003.3
2023-06-11T04:23:26.049Z,1003.4
2023-06-11T04:24:27.423Z,1003.4
2023-06-11T04:25:28.875Z,1003.4
2023-06-11T04:26:30.045Z,1003.4
2023-06-11T04:27:31.263Z,1003.4
2023-06-11T04:28:32.660Z,1003.4
2023-06-11T04:29:33.807Z,1003.4
2023-06-11T04:30:35.250Z,1003.4
2023-06-11T04:31:39.581Z,1003.4
2023-06-11T04:32:40.971Z,1003.4
2023-06-11T04:33:42.237Z,1003.4
2023-06-11T04:34:43.427Z,1003.3
2023-06-11T04:35:44.662Z,1003.3
2023-06-11T04:36:45.935Z,1003.3
2023-06-11T04:37:47.101Z,1003.4
2023-06-11T04:38:48.593Z,1003.3
2023-06-11T04:39:49.875Z,1003.3
2023-06-11T04:40:53.776Z,1003.3
2023-06-11T04:41:55.008Z,1003.3
2023-06-11T04:42:56.202Z,1003.3
2023-06-11T04:43:57.421Z,1003.3
2023-06-11T04:44:58.588Z,1003.3
2023-06-11T04:45:59.751Z,1003.3
2023-06-11T04:47:00.991Z,1003.3
2023-06-11T04:48:02.357Z,1003.3
2023-06-11T04:49:03.649Z,1003.3
2023-06-11T04:50:04.837Z,1003.3
2023-06-11T04:51:06.036Z,1003.3
2023-06-11T04:52:07.205Z,1003.3
2023-06-11T04:53:08.394Z,1003.3
2023-06-11T04:54:12.237Z,1003.3
2023-06-11T04:55:14.032Z,1003.2
2023-06-11T04:56:15.470Z,1003.2
2023-06-11T04:57:16.631Z,1003.2
2023-06-11T04:58:17.792Z,1003.2
2023-06-11T04:59:18.971Z,1003.2
2023-06-11T05:00:20.158Z,1003.2
2023-06-11T05:01:21.316Z,1003.2
2023-06-11T05:02:22.816Z,1003.2
2023-06-11T05:03:24.144Z,1003.2
2023-06-11T05:04:25.575Z,1003.2
2023-06-11T05:05:26.817Z,1003.2
2023-06-11T05:06:28.319Z,1003.2
2023-06-11T05:07:29.599Z,1003.3
2023-06-11T05:08:30.960Z,1003.2
2023-06-11T05:09:32.202Z,1003.2
2023-06-11T05:10:33.414Z,1003.2
2023-06-11T05:11:34.628Z,1003.2
2023-06-11T05:12:35.888Z,1003.2
2023-06-11T05:13:37.059Z,1003.2
2023-06-11T05:14:38.281Z,1003.2
2023-06-11T05:15:39.452Z,1003.2
2023-06-11T05:16:40.974Z,1003.2
2023-06-11T05:17:42.218Z,1003.3
2023-06-11T05:18:43.486Z,1003.3
2023-06-11T05:19:44.667Z,1003.3
2023-06-11T05:20:45.823Z,1003.3
2023-06-11T05:21:46.989Z,1003.3
2023-06-11T05:22:48.160Z,1003.3
2023-06-11T05:23:49.388Z,1003.3
2023-06-11T05:24:50.742Z,1003.2
2023-06-11T05:25:52.016Z,1003.2
2023-06-11T05:26:53.233Z,1003.2
2023-06-11T05:27:54.560Z,1003.2
2023-06-11T05:28:55.779Z,1003.2
2023-06-11T05:29:57.064Z,1003.2
2023-06-11T05:30:58.297Z,1003.2
2023-06-11T05:31:59.566Z,1003.3
2023-06-11T05:33:00.874Z,1003.3
2023-06-11T05:34:02.283Z,1003.3
2023-06-11T05:35:06.353Z,1003.3
2023-06-11T05:36:07.679Z,1003.3
2023-06-11T05:37:08.859Z,1003.3
2023-06-11T05:38:10.022Z,1003.3
2023-06-11T05:39:11.294Z,1003.3
2023-06-11T05:40:12.511Z,1003.3
2023-06-11T05:41:13.752Z,1003.3
2023-06-11T05:42:15.128Z,1003.3
2023-06-11T05:43:16.654Z,1003.3
2023-06-11T05:44:17.831Z,1003.3
2023-06-11T05:45:18.998Z,1003.2
2023-06-11T05:46:20.363Z,1003.3
2023-06-11T05:47:21.907Z,1003.3
2023-06-11T05:48:23.455Z,1003.3
2023-06-11T05:49:24.776Z,1003.3
2023-06-11T05:50:25.996Z,1003.3
2023-06-11T05:51:27.224Z,1003.3
2023-06-11T05:52:28.808Z,1003.3
2023-06-11T05:53:30.127Z,1003.3
2023-06-11T05:54:31.284Z,1003.3
2023-06-11T05:55:32.584Z,1003.3
2023-06-11T05:56:33.747Z,1003.3
2023-06-11T05:57:34.929Z,1003.3
2023-06-11T05:58:38.998Z,1003.3
2023-06-11T05:59:40.153Z,1003.3
2023-06-11T06:00:43.550Z,1003.3
2023-06-11T06:01:44.738Z,1003.3
2023-06-11T06:02:46.090Z,1003.3
2023-06-11T06:03:50.649Z,1003.3
2023-06-11T06:04:52.186Z,1003.3
2023-06-11T06:05:56.482Z,1003.4
2023-06-11T06:07:00.171Z,1003.4
2023-06-11T06:08:01.365Z,1003.4
2023-06-11T06:09:05.497Z,1003.4
2023-06-11T06:10:06.722Z,1003.4
2023-06-11T06:11:07.939Z,1003.4
2023-06-11T06:12:09.100Z,1003.4
2023-06-11T06:13:10.271Z,1003.4
2023-06-11T06:14:14.196Z,1003.4
2023-06-11T06:15:15.422Z,1003.4
2023-06-11T06:16:16.690Z,1003.4
2023-06-11T06:17:20.765Z,1003.4
2023-06-11T06:18:24.022Z,1003.4
2023-06-11T06:19:25.198Z,1003.4
2023-06-11T06:20:26.361Z,1003.4
2023-06-11T06:21:27.619Z,1003.4
2023-06-11T06:22:28.955Z,1003.5
2023-06-11T06:23:41.502Z,1003.5
2023-06-11T06:24:42.768Z,1003.5
2023-06-11T06:25:43.943Z,1003.5
2023-06-11T06:26:47.568Z,1003.5
2023-06-11T06:27:48.757Z,1003.5
2023-06-11T06:28:50.081Z,1003.5
2023-06-11T06:29:54.048Z,1003.5
2023-06-11T06:30:55.269Z,1003.5
2023-06-11T06:31:59.262Z,1003.5
2023-06-11T06:33:00.883Z,1003.5
2023-06-11T06:34:02.424Z,1003.6
2023-06-11T06:35:06.328Z,1003.6
2023-06-11T06:36:07.538Z,1003.6
2023-06-11T06:37:11.798Z,1003.6
2023-06-11T06:38:12.964Z,1003.5
2023-06-11T06:39:16.300Z,1003.5
2023-06-11T06:40:17.466Z,1003.5
2023-06-11T06:41:26.669Z,1003.5
2023-06-11T06:42:30.344Z,1003.5
2023-06-11T06:43:31.552Z,1003.6
2023-06-11T06:44:32.790Z,1003.6
2023-06-11T06:45:33.933Z,1003.6
2023-06-11T06:46:35.099Z,1003.6
2023-06-11T06:47:36.503Z,1003.6
2023-06-11T06:48:38.048Z,1003.6
2023-06-11T06:49:39.509Z,1003.6
2023-06-11T06:50:40.662Z,1003.5
2023-06-11T06:51:41.871Z,1003.6
2023-06-11T06:52:43.106Z,1003.6
2023-06-11T06:53:44.272Z,1003.6
2023-06-11T06:54:45.441Z,1003.6
2023-06-11T06:55:46.611Z,1003.6
2023-06-11T06:56:47.766Z,1003.6
2023-06-11T06:57:49.151Z,1003.6
2023-06-11T06:58:50.414Z,1003.6
2023-06-11T06:59:51.593Z,1003.6
2023-06-11T07:00:52.796Z,1003.6
2023-06-11T07:01:54.020Z,1003.6
2023-06-11T07:02:55.416Z,1003.6
2023-06-11T07:03:56.613Z,1003.6
2023-06-11T07:04:57.756Z,1003.6
2023-06-11T07:05:58.947Z,1003.6
2023-06-11T07:07:00.176Z,1003.6
2023-06-11T07:08:01.342Z,1003.6
2023-06-11T07:09:02.511Z,1003.6
2023-06-11T07:10:03.667Z,1003.6
2023-06-11T07:11:04.827Z,1003.7
2023-06-11T07:12:05.989Z,1003.6
2023-06-11T07:13:07.198Z,1003.7
2023-06-11T07:14:08.344Z,1003.7
2023-06-11T07:15:09.519Z,1003.7
2023-06-11T07:16:10.828Z,1003.7
2023-06-11T07:17:12.200Z,1003.7
2023-06-11T07:18:13.517Z,1003.7
2023-06-11T07:19:14.685Z,1003.7
2023-06-11T07:20:16.638Z,1003.6
2023-06-11T07:21:21.027Z,1003.6
2023-06-11T07:22:22.047Z,1003.6
2023-06-11T07:23:23.602Z,1003.6
2023-06-11T07:24:25.100Z,1003.6
2023-06-11T07:25:26.416Z,1003.6
2023-06-11T07:26:27.600Z,1003.6
2023-06-11T07:27:28.768Z,1003.6
2023-06-11T07:28:30.071Z,1003.6
2023-06-11T07:29:31.244Z,1003.6
2023-06-11T07:30:32.452Z,1003.6
2023-06-11T07:31:33.858Z,1003.6
2023-06-11T07:32:35.260Z,1003.6
2023-06-11T07:33:36.458Z,1003.6
2023-06-11T07:34:37.621Z,1003.6
2023-06-11T07:35:38.873Z,1003.6
2023-06-11T07:36:40.045Z,1003.6
2023-06-11T07:37:41.211Z,1003.6
2023-06-11T07:38:42.378Z,1003.5
2023-06-11T07:39:43.536Z,1003.5
2023-06-11T07:40:44.707Z,1003.5
2023-06-11T07:41:45.906Z,1003.5
2023-06-11T07:42:47.123Z,1003.5
2023-06-11T07:43:48.305Z,1003.5
2023-06-11T07:44:49.446Z,1003.5
2023-06-11T07:45:50.612Z,1003.5
2023-06-11T07:46:51.836Z,1003.5
2023-06-11T07:47:53.207Z,1003.5
2023-06-11T07:48:54.491Z,1003.5
2023-06-11T07:49:55.661Z,1003.5
2023-06-11T07:50:56.831Z,1003.5
2023-06-11T07:51:57.999Z,1003.5
2023-06-11T07:52:59.159Z,1003.5
2023-06-11T07:54:00.335Z,1003.5
2023-06-11T07:55:01.517Z,1003.5
2023-06-11T07:56:02.679Z,1003.5
2023-06-11T07:57:03.852Z,1003.5
2023-06-11T07:58:05.037Z,1003.4
2023-06-11T07:59:06.516Z,1003.4
2023-06-11T08:00:07.366Z,1003.4
2023-06-11T08:01:08.528Z,1003.4
2023-06-11T08:02:09.727Z,1003.4
2023-06-11T08:03:10.947Z,1003.4
2023-06-11T08:04:12.142Z,1003.4
2023-06-11T08:05:13.493Z,1003.4
2023-06-11T08:06:14.978Z,1003.4
2023-06-11T08:07:16.262Z,1003.5
2023-06-11T08:08:17.429Z,1003.5
2023-06-11T08:09:18.598Z,1003.5
2023-06-11T08:10:19.770Z,1003.5
2023-06-11T08:11:20.936Z,1003.5
2023-06-11T08:12:22.097Z,1003.5
2023-06-11T08:13:23.547Z,1003.4
2023-06-11T08:14:24.844Z,1003.4
2023-06-11T08:15:25.997Z,1003.4
2023-06-11T08:16:27.197Z,1003.4
2023-06-11T08:17:28.349Z,1003.4
2023-06-11T08:18:29.559Z,1003.4
2023-06-11T08:19:30.712Z,1003.4
2023-06-11T08:20:31.884Z,1003.4
2023-06-11T08:21:33.060Z,1003.4
2023-06-11T08:22:34.219Z,1003.4
2023-06-11T08:23:35.399Z,1003.4
2023-06-11T08:24:36.563Z,1003.4
2023-06-11T08:25:37.741Z,1003.4
2023-06-11T08:26:41.473Z,1003.4
2023-06-11T08:27:42.641Z,1003.4
2023-06-11T08:28:43.806Z,1003.4
2023-06-11T08:29:45.070Z,1003.4
2023-06-11T08:30:46.209Z,1003.4
2023-06-11T08:31:50.446Z,1003.4
2023-06-11T08:32:51.692Z,1003.4
2023-06-11T08:33:54.235Z,1003.3
2023-06-11T08:34:55.392Z,1003.4
2023-06-11T08:35:56.568Z,1003.4
2023-06-11T08:36:57.737Z,1003.3
2023-06-11T08:37:58.908Z,1003.3
2023-06-11T08:39:00.081Z,1003.3
2023-06-11T08:40:01.242Z,1003.3
2023-06-11T08:41:02.424Z,1003.3
2023-06-11T08:42:06.746Z,1003.3
2023-06-11T08:43:07.876Z,1003.3
2023-06-11T08:44:09.038Z,1003.3
2023-06-11T08:45:10.266Z,1003.3
2023-06-11T08:46:11.468Z,1003.3
2023-06-11T08:47:12.715Z,1003.3
2023-06-11T08:48:13.988Z,1003.3
2023-06-11T08:49:18.132Z,1003.3
2023-06-11T08:50:19.266Z,1003.3
2023-06-11T08:51:20.427Z,1003.3
2023-06-11T08:52:21.601Z,1003.3
2023-06-11T08:53:22.758Z,1003.3
2023-06-11T08:54:23.986Z,1003.3
2023-06-11T08:55:25.136Z,1003.3
2023-06-11T08:56:26.356Z,1003.3
2023-06-11T08:57:27.638Z,1003.3
2023-06-11T08:58:28.806Z,1003.3
2023-06-11T08:59:29.998Z,1003.3
2023-06-11T09:00:31.192Z,1003.3
2023-06-11T09:01:32.388Z,1003.3
2023-06-11T09:02:33.744Z,1003.3
2023-06-11T09:03:34.998Z,1003.3
2023-06-11T09:04:36.152Z,1003.3
2023-06-11T09:05:37.323Z,1003.3
2023-06-11T09:06:38.489Z,1003.3
2023-06-11T09:07:39.657Z,1003.3
2023-06-11T09:08:40.824Z,1003.3
2023-06-11T09:09:41.987Z,1003.3
2023-06-11T09:10:43.154Z,1003.2
2023-06-11T09:11:44.323Z,1003.2
2023-06-11T09:12:45.496Z,1003.2
2023-06-11T09:13:46.661Z,1003.2
2023-06-11T09:14:47.822Z,1003.3
2023-06-11T09:15:49.117Z,1003.2
2023-06-11T09:16:50.683Z,1003.2
2023-06-11T09:17:51.956Z,1003.2
2023-06-11T09:18:53.132Z,1003.2
2023-06-11T09:19:54.301Z,1003.2
2023-06-11T09:20:55.476Z,1003.2
2023-06-11T09:21:56.641Z,1003.1
2023-06-11T09:22:57.867Z,1003.2
2023-06-11T09:23:59.158Z,1003.1
2023-06-11T09:25:00.326Z,1003.1
2023-06-11T09:26:01.662Z,1003.1
2023-06-11T09:27:02.865Z,1003.1
2023-06-11T09:28:04.020Z,1003.1
2023-06-11T09:29:10.664Z,1003.1
2023-06-11T09:30:12.548Z,1003.1
2023-06-11T09:31:14.616Z,1003.1
2023-06-11T09:32:34.880Z,1003.2
2023-06-11T09:33:36.258Z,1003.2
2023-06-11T09:34:37.466Z,1003.2
2023-06-11T09:35:41.419Z,1003.2
2023-06-11T09:36:42.602Z,1003.2
2023-06-11T09:37:43.803Z,1003.2
2023-06-11T09:38:45.045Z,1003.2
2023-06-11T09:39:46.221Z,1003.2
2023-06-11T09:40:50.555Z,1003.2
2023-06-11T09:41:51.746Z,1003.2
2023-06-11T09:42:55.590Z,1003.2
2023-06-11T09:43:56.774Z,1003.2
2023-06-11T09:44:57.934Z,1003.2
2023-06-11T09:45:58.966Z,1003.1
2023-06-11T09:47:03.719Z,1003.2
2023-06-11T09:48:05.134Z,1003.2
2023-06-11T09:49:09.286Z,1003.2
2023-06-11T09:51:41.334Z,1003.2
2023-06-11T09:52:42.527Z,1003.2
2023-06-11T09:53:43.702Z,1003.2
2023-06-11T09:54:44.892Z,1003.2
2023-06-11T09:56:09.966Z,1003.2
2023-06-11T09:57:13.025Z,1003.2
2023-06-11T09:58:16.973Z,1003.2
2023-06-11T09:59:18.220Z,1003.2
2023-06-11T10:00:22.077Z,1003.1
2023-06-11T10:01:23.256Z,1003.1
2023-06-11T10:02:42.346Z,1003.1
2023-06-11T10:04:01.165Z,1003.1
2023-06-11T10:05:05.195Z,1003.1
2023-06-11T10:06:06.449Z,1003.1
2023-06-11T10:07:10.161Z,1003.2
2023-06-11T10:08:11.321Z,1003.1
2023-06-11T10:09:17.329Z,1003.1
2023-06-11T10:10:20.635Z,1003.1
2023-06-11T10:11:30.870Z,1003.1
2023-06-11T10:12:32.063Z,1003.1
2023-06-11T10:13:36.667Z,1003.1
2023-06-11T10:14:43.857Z,1003.1
2023-06-11T10:15:47.670Z,1003.1
2023-06-11T10:16:54.336Z,1003.1
2023-06-11T10:17:55.683Z,1003.1
2023-06-11T10:19:04.443Z,1003.1
2023-06-11T10:20:05.606Z,1003.1
2023-06-11T10:21:06.805Z,1003
2023-06-11T10:22:10.776Z,1003
2023-06-11T10:23:12.079Z,1003
2023-06-11T10:24:18.720Z,1003
2023-06-11T10:26:29.554Z,1003
2023-06-11T10:27:30.798Z,1003
2023-06-11T10:28:31.962Z,1003
2023-06-11T10:29:35.939Z,1003
2023-06-11T10:30:37.351Z,1003
2023-06-11T10:31:43.567Z,1003
2023-06-11T10:32:44.730Z,1003
2023-06-11T10:33:46.238Z,1003
2023-06-11T10:34:47.831Z,1003
2023-06-11T10:35:49.192Z,1003
2023-06-11T10:36:50.421Z,1003
2023-06-11T10:37:56.783Z,1003
2023-06-11T10:38:58.003Z,1002.9
2023-06-11T10:39:59.171Z,1002.9
2023-06-11T10:41:00.378Z,1002.9
2023-06-11T10:42:01.565Z,1002.9
2023-06-11T10:43:14.349Z,1002.9
2023-06-11T10:44:15.516Z,1002.9
2023-06-11T10:45:16.724Z,1002.9
2023-06-11T10:46:22.738Z,1002.8
2023-06-11T10:47:29.254Z,1002.9
2023-06-11T10:48:33.423Z,1002.9
2023-06-11T10:49:42.345Z,1002.9
2023-06-11T10:50:43.543Z,1002.9
2023-06-11T10:51:44.712Z,1002.8
2023-06-11T10:52:45.873Z,1002.9
2023-06-11T10:53:49.981Z,1002.9
2023-06-11T10:55:12.199Z,1002.9
2023-06-11T10:57:29.691Z,1002.9
2023-06-11T10:58:30.830Z,1002.9
2023-06-11T10:59:32.007Z,1002.9
2023-06-11T11:00:35.844Z,1002.8
2023-06-11T11:01:37.077Z,1002.8
2023-06-11T11:02:38.529Z,1002.8
2023-06-11T11:03:42.797Z,1002.8
2023-06-11T11:04:44.145Z,1002.8
2023-06-11T11:05:48.233Z,1002.8
2023-06-11T11:07:08.880Z,1002.8
2023-06-11T11:08:10.561Z,1002.8
2023-06-11T11:09:16.163Z,1002.8
2023-06-11T11:10:17.323Z,1002.8
2023-06-11T11:11:24.245Z,1002.7
2023-06-11T11:12:25.444Z,1002.7
2023-06-11T11:13:26.612Z,1002.7
2023-06-11T11:14:27.769Z,1002.7
2023-06-11T11:15:31.523Z,1002.7
2023-06-11T11:16:32.768Z,1002.7
2023-06-11T11:17:43.131Z,1002.7
2023-06-11T11:18:44.364Z,1002.7
2023-06-11T11:19:45.540Z,1002.7
2023-06-11T11:20:46.736Z,1002.6
2023-06-11T11:21:47.927Z,1002.6
2023-06-11T11:22:59.673Z,1002.6
2023-06-11T11:24:01.067Z,1002.6
2023-06-11T11:25:04.612Z,1002.6
2023-06-11T11:26:14.564Z,1002.6
2023-06-11T11:27:18.779Z,1002.6
2023-06-11T11:28:19.988Z,1002.6
2023-06-11T11:29:21.161Z,1002.6
2023-06-11T11:30:33.696Z,1002.6
2023-06-11T11:31:37.828Z,1002.6
2023-06-11T11:32:46.639Z,1002.6
2023-06-11T11:33:50.576Z,1002.5
2023-06-11T11:34:57.589Z,1002.5
2023-06-11T11:36:06.403Z,1002.5
2023-06-11T11:37:09.808Z,1002.5
2023-06-11T11:38:16.734Z,1002.5
2023-06-11T11:39:38.643Z,1002.5
2023-06-11T11:40:44.688Z,1002.5
2023-06-11T11:41:54.713Z,1002.5
2023-06-11T11:43:13.034Z,1002.5
2023-06-11T11:44:17.252Z,1002.5
2023-06-11T11:45:18.572Z,1002.4
2023-06-11T11:46:19.886Z,1002.4
2023-06-11T11:47:23.765Z,1002.4
2023-06-11T11:48:28.028Z,1002.4
2023-06-11T11:49:34.172Z,1002.4
2023-06-11T11:50:46.606Z,1002.3
2023-06-11T11:51:48.008Z,1002.3
2023-06-11T11:52:49.169Z,1002.4
2023-06-11T11:53:52.478Z,1002.3
2023-06-11T11:54:53.626Z,1002.3
2023-06-11T11:56:07.244Z,1002.3
2023-06-11T11:57:16.651Z,1002.3
2023-06-11T11:58:17.823Z,1002.3
2023-06-11T11:59:18.986Z,1002.3
2023-06-11T12:00:20.152Z,1002.2
2023-06-11T12:01:27.519Z,1002.3
2023-06-11T12:02:31.711Z,1002.2
2023-06-11T12:03:36.350Z,1002.3
2023-06-11T12:04:37.700Z,1002.3
2023-06-11T12:05:39.225Z,1002.3
2023-06-11T12:06:40.371Z,1002.3
2023-06-11T12:07:41.588Z,1002.3
2023-06-11T12:08:45.616Z,1002.3
2023-06-11T12:09:46.871Z,1002.2
2023-06-11T12:10:50.653Z,1002.2
2023-06-11T12:12:06.334Z,1002.2
2023-06-11T12:13:09.846Z,1002.2
2023-06-11T12:14:13.861Z,1002.2
2023-06-11T12:15:15.024Z,1002.1
2023-06-11T12:16:19.289Z,1002.2
2023-06-11T12:17:20.498Z,1002.1
2023-06-11T12:18:21.729Z,1002.2
2023-06-11T12:19:24.826Z,1002.2
2023-06-11T12:20:26.059Z,1002.2
2023-06-11T12:21:27.269Z,1002.2
2023-06-11T12:22:30.961Z,1002.2
2023-06-11T12:23:32.176Z,1002.2
2023-06-11T12:24:33.675Z,1002.2
2023-06-11T12:25:35.143Z,1002.1
2023-06-11T12:26:36.299Z,1002.2
2023-06-11T12:27:40.452Z,1002.2
2023-06-11T12:28:48.998Z,1002.1
2023-06-11T12:29:53.136Z,1002.1
2023-06-11T12:30:54.308Z,1002.2
2023-06-11T12:31:57.833Z,1002.1
2023-06-11T12:33:02.346Z,1002.1
2023-06-11T12:34:10.743Z,1002
2023-06-11T12:35:18.737Z,1002
2023-06-11T12:36:22.810Z,1002
2023-06-11T12:37:26.908Z,1002.1
2023-06-11T12:38:32.630Z,1002.1
2023-06-11T12:39:43.261Z,1002.1
2023-06-11T12:40:44.526Z,1002.1
2023-06-11T12:42:57.004Z,1002.1
2023-06-11T12:44:03.036Z,1002.1
2023-06-11T12:45:04.949Z,1002.1
2023-06-11T12:46:06.245Z,1002.1
2023-06-11T12:47:12.991Z,1002
2023-06-11T12:48:17.229Z,1002
2023-06-11T12:49:21.343Z,1002
2023-06-11T12:50:28.567Z,1001.9
2023-06-11T12:51:35.181Z,1001.9
2023-06-11T12:52:38.960Z,1002
2023-06-11T12:53:40.160Z,1001.9
2023-06-11T12:54:44.148Z,1001.9
2023-06-11T12:55:45.344Z,1001.9
2023-06-11T12:56:49.520Z,1001.9
2023-06-11T12:57:50.680Z,1001.9
2023-06-11T12:58:54.669Z,1001.9
2023-06-11T12:59:58.661Z,1001.9
2023-06-11T13:00:59.871Z,1001.9
2023-06-11T13:02:01.135Z,1001.9
2023-06-11T13:03:02.287Z,1001.9
2023-06-11T13:04:03.571Z,1001.9
2023-06-11T13:05:10.275Z,1001.9